Montpelier, Virginia
Current Conditions -  °F | °C
As of 9:15 PM on Saturday 22 Nov 2014 (Local Time) from K7W4 Reporting Station
Clear Clear  
Wind Chill: 33°   Ceiling: Unl
Heat Index: 37°   Visibility: 10mi
Dew Point: 18°   Wind: 5mph
Humidity: 46%   Direction: 200°SSW
Pressure: 30.3"   Gusts: NA
Location:  37.82°N, 77.68°W
Report Text: K7W4 230215Z AUTO 20004KT 10SM CLR 03/M08 A3030 RMK AO1 T00251080
Loading
Personal Weather Stations






























Interactive Weather Map New forecast layout! Learn more

10-Day Weather Forecast

Advertisements
Track Severe Weather on mobile